Tercio, Colorado
Current Conditions -  °F | °C
As of 6:45 PM on Monday 20 Oct 2014 (Local Time) from KVTP Reporting Station
Scattered Clouds Scattered Clouds  
Wind Chill: 40°   Ceiling: Unl
Heat Index: 43°   Visibility: 10mi
Dew Point: 30°   Wind: 5mph
Humidity: 61%   Direction: 10°N
Pressure: 30.37"   Gusts: NA
Location:  37.1566°N, 104.956°W
Report Text: KVTP 210045Z AUTO 01004KT 10SM SCT050 06/M01 A3037 RMK AO2
Loading
Personal Weather Stations






























Interactive Weather Map
Tropical Storm Tracking
New forecast layout! Learn more

10-Day Weather Forecast

Advertisements
Track Severe Weather on mobile